createdAt,value
2023-03-05T00:00:25.448Z,56.49
2023-03-05T00:02:51.541Z,56.66
2023-03-05T00:05:17.761Z,56.74
2023-03-05T00:07:43.783Z,56.67
2023-03-05T00:10:10.227Z,56.54
2023-03-05T00:12:36.630Z,56.77
2023-03-05T00:15:03.292Z,56.70
2023-03-05T00:17:29.642Z,56.71
2023-03-05T00:19:57.964Z,56.73
2023-03-05T00:22:24.028Z,56.79
2023-03-05T00:24:51.197Z,56.73
2023-03-05T00:27:17.468Z,56.56
2023-03-05T00:29:43.598Z,56.52
2023-03-05T00:32:09.678Z,56.66
2023-03-05T00:34:36.825Z,56.63
2023-03-05T00:37:03.195Z,56.58
2023-03-05T00:39:29.245Z,56.74
2023-03-05T00:41:56.435Z,56.75
2023-03-05T00:44:23.503Z,56.73
2023-03-05T00:46:49.752Z,56.73
2023-03-05T00:49:16.362Z,56.73
2023-03-05T00:51:42.597Z,56.63
2023-03-05T00:54:08.689Z,56.57
2023-03-05T00:56:34.823Z,56.57
2023-03-05T00:59:01.031Z,56.42
2023-03-05T01:01:28.503Z,56.39
2023-03-05T01:03:56.876Z,56.55
2023-03-05T01:06:23.239Z,56.40
2023-03-05T01:08:49.347Z,56.37
2023-03-05T01:11:15.589Z,56.29
2023-03-05T01:13:41.772Z,56.28
2023-03-05T01:16:08.227Z,56.17
2023-03-05T01:18:34.327Z,56.09
2023-03-05T01:21:00.503Z,55.91
2023-03-05T01:23:26.728Z,55.87
2023-03-05T01:25:57.617Z,56.04
2023-03-05T01:28:24.392Z,55.80
2023-03-05T01:30:50.739Z,55.77
2023-03-05T01:33:17.642Z,55.87
2023-03-05T01:35:49.603Z,55.73
2023-03-05T01:38:16.883Z,55.78
2023-03-05T01:40:43.688Z,55.83
2023-03-05T01:43:12.822Z,55.59
2023-03-05T01:46:16.081Z,55.44
2023-03-05T01:48:45.307Z,55.56
2023-03-05T01:51:12.340Z,55.38
2023-03-05T01:53:39.490Z,55.51
2023-03-05T01:56:06.317Z,55.50
2023-03-05T01:58:32.819Z,55.51
2023-03-05T02:00:59.289Z,55.40
2023-03-05T02:03:25.956Z,55.34
2023-03-05T02:05:53.017Z,55.36
2023-03-05T02:08:21.478Z,55.12
2023-03-05T02:10:50.496Z,54.93
2023-03-05T02:13:23.075Z,54.98
2023-03-05T02:15:50.011Z,54.96
2023-03-05T02:18:17.756Z,55.07
2023-03-05T02:20:50.985Z,54.94
2023-03-05T02:23:18.693Z,54.65
2023-03-05T02:25:45.070Z,54.70
2023-03-05T02:28:25.760Z,54.87
2023-03-05T02:30:52.065Z,54.81
2023-03-05T02:33:19.493Z,54.93
2023-03-05T02:35:46.843Z,54.85
2023-03-05T02:38:15.383Z,54.79
2023-03-05T02:40:42.031Z,54.77
2023-03-05T02:43:09.023Z,54.79
2023-03-05T02:45:36.213Z,54.86
2023-03-05T02:48:02.567Z,54.87
2023-03-05T02:50:29.172Z,54.98
2023-03-05T02:52:55.322Z,54.88
2023-03-05T02:55:21.933Z,55.01
2023-03-05T02:57:48.153Z,55.07
2023-03-05T03:00:14.931Z,55.13
2023-03-05T03:02:41.229Z,55.33
2023-03-05T03:05:08.178Z,55.39
2023-03-05T03:07:35.958Z,55.31
2023-03-05T03:10:03.508Z,55.30
2023-03-05T03:12:29.561Z,55.27
2023-03-05T03:14:55.801Z,55.37
2023-03-05T03:17:21.982Z,55.27
2023-03-05T03:19:48.115Z,55.30
2023-03-05T03:22:15.848Z,55.19
2023-03-05T03:24:42.995Z,55.16
2023-03-05T03:27:09.905Z,55.15
2023-03-05T03:29:36.288Z,54.98
2023-03-05T03:32:03.020Z,54.88
2023-03-05T03:34:29.162Z,54.86
2023-03-05T03:36:55.428Z,54.95
2023-03-05T03:39:22.015Z,54.97
2023-03-05T03:41:51.276Z,54.90
2023-03-05T03:44:18.928Z,55.02
2023-03-05T03:46:46.591Z,55.02
2023-03-05T03:49:21.990Z,54.97
2023-03-05T03:51:49.309Z,54.98
2023-03-05T03:54:16.358Z,54.92
2023-03-05T03:56:42.952Z,54.80
2023-03-05T03:59:09.596Z,54.85
2023-03-05T04:01:36.242Z,54.82
2023-03-05T04:04:03.267Z,54.80
2023-03-05T04:06:29.396Z,54.78
2023-03-05T04:08:55.807Z,54.67
2023-03-05T04:11:21.988Z,54.76
2023-03-05T04:13:48.802Z,54.74
2023-03-05T04:16:16.446Z,54.87
2023-03-05T04:18:43.095Z,54.91
2023-03-05T04:21:09.314Z,55.02
2023-03-05T04:23:35.698Z,54.91
2023-03-05T04:26:01.896Z,55.05
2023-03-05T04:28:27.928Z,54.99
2023-03-05T04:30:54.162Z,55.02
2023-03-05T04:33:20.414Z,55.03
2023-03-05T04:35:46.682Z,55.04
2023-03-05T04:38:13.086Z,55.17
2023-03-05T04:40:39.460Z,55.11
2023-03-05T04:43:05.765Z,55.25
2023-03-05T04:45:32.197Z,55.32
2023-03-05T04:47:58.660Z,55.30
2023-03-05T04:50:25.403Z,55.29
2023-03-05T04:52:51.572Z,55.26
2023-03-05T04:55:18.174Z,55.07
2023-03-05T04:57:44.715Z,55.11
2023-03-05T05:00:13.952Z,55.16
2023-03-05T05:02:50.743Z,55.23
2023-03-05T05:05:23.397Z,55.05
2023-03-05T05:07:49.648Z,55.16
2023-03-05T05:10:16.184Z,54.99
2023-03-05T05:12:42.613Z,54.92
2023-03-05T05:15:09.528Z,54.86
2023-03-05T05:17:35.713Z,54.84
2023-03-05T05:20:05.982Z,54.90
2023-03-05T05:22:32.234Z,54.96
2023-03-05T05:24:58.359Z,54.91
2023-03-05T05:27:24.632Z,54.60
2023-03-05T05:29:52.183Z,54.50
2023-03-05T05:32:20.602Z,54.55
2023-03-05T05:34:46.745Z,54.53
2023-03-05T05:37:12.824Z,54.73
2023-03-05T05:39:38.952Z,54.85
2023-03-05T05:42:05.580Z,54.66
2023-03-05T05:44:34.210Z,54.27
2023-03-05T05:47:00.956Z,54.03
2023-03-05T05:49:27.113Z,53.62
2023-03-05T05:51:53.182Z,53.17
2023-03-05T05:54:19.329Z,53.08
2023-03-05T05:56:45.456Z,52.93
2023-03-05T05:59:11.532Z,52.60
2023-03-05T06:01:37.662Z,52.32
2023-03-05T06:04:03.828Z,51.91
2023-03-05T06:06:30.277Z,51.56
2023-03-05T06:08:56.848Z,51.46
2023-03-05T06:11:23.400Z,51.16
2023-03-05T06:13:49.898Z,50.88
2023-03-05T06:16:20.050Z,50.48
2023-03-05T06:18:46.202Z,50.61
2023-03-05T06:21:14.995Z,50.23
2023-03-05T06:23:41.830Z,49.92
2023-03-05T06:26:10.327Z,49.63
2023-03-05T06:28:36.457Z,49.72
2023-03-05T06:31:05.477Z,49.53
2023-03-05T06:33:32.184Z,49.22
2023-03-05T06:35:58.862Z,48.91
2023-03-05T06:38:25.474Z,49.06
2023-03-05T06:40:51.919Z,48.85
2023-03-05T06:43:17.995Z,48.86
2023-03-05T06:45:44.162Z,49.02
2023-03-05T06:48:11.115Z,48.92
2023-03-05T06:50:37.312Z,49.08
2023-03-05T06:53:03.569Z,48.69
2023-03-05T06:55:29.743Z,48.98
2023-03-05T06:57:55.819Z,48.96
2023-03-05T07:00:22.282Z,48.55
2023-03-05T07:02:48.384Z,48.26
2023-03-05T07:05:14.539Z,47.93
2023-03-05T07:07:40.703Z,47.62
2023-03-05T07:10:07.765Z,47.15
2023-03-05T07:12:34.503Z,47.06
2023-03-05T07:15:00.720Z,46.35
2023-03-05T07:17:27.311Z,45.97
2023-03-05T07:19:53.575Z,45.61
2023-03-05T07:22:19.702Z,44.99
2023-03-05T07:24:45.825Z,44.70
2023-03-05T07:27:11.950Z,43.94
2023-03-05T07:29:38.092Z,42.56
2023-03-05T07:32:04.616Z,41.20
2023-03-05T07:34:30.818Z,40.25
2023-03-05T07:36:56.917Z,39.33
2023-03-05T07:39:23.053Z,38.46
2023-03-05T07:41:50.932Z,37.20
2023-03-05T07:44:17.293Z,35.97
2023-03-05T07:46:44.152Z,35.13
2023-03-05T07:49:10.240Z,33.27
2023-03-05T07:51:36.417Z,32.94
2023-03-05T07:54:03.232Z,33.16
2023-03-05T07:56:32.334Z,32.78
2023-03-05T07:58:59.012Z,32.31
2023-03-05T08:01:25.180Z,31.88
2023-03-05T08:03:51.259Z,31.84
2023-03-05T08:06:17.445Z,31.77
2023-03-05T08:08:43.859Z,32.28
2023-03-05T08:11:12.537Z,32.15
2023-03-05T08:13:39.399Z,32.37
2023-03-05T08:16:07.737Z,31.77
2023-03-05T08:18:34.398Z,31.90
2023-03-05T08:21:00.590Z,32.37
2023-03-05T08:23:29.902Z,32.56
2023-03-05T08:25:56.338Z,32.45
2023-03-05T08:28:23.270Z,32.39
2023-03-05T08:30:49.415Z,32.52
2023-03-05T08:33:17.032Z,32.48
2023-03-05T08:35:44.037Z,32.96
2023-03-05T08:38:10.668Z,33.28
2023-03-05T08:40:36.801Z,33.83
2023-03-05T08:43:05.211Z,33.74
2023-03-05T08:45:31.257Z,34.02
2023-03-05T08:47:57.655Z,33.99
2023-03-05T08:50:23.961Z,34.09
2023-03-05T08:52:50.236Z,34.26
2023-03-05T08:55:16.416Z,33.85
2023-03-05T08:57:42.723Z,33.52
2023-03-05T09:00:09.867Z,33.67
2023-03-05T09:02:36.651Z,34.18
2023-03-05T09:05:03.428Z,34.51
2023-03-05T09:07:29.500Z,34.90
2023-03-05T09:09:55.637Z,34.84
2023-03-05T09:12:21.839Z,34.82
2023-03-05T09:14:47.939Z,34.81
2023-03-05T09:17:14.174Z,34.45
2023-03-05T09:19:40.277Z,34.45
2023-03-05T09:22:06.357Z,34.08
2023-03-05T09:24:32.449Z,34.58
2023-03-05T09:26:59.892Z,34.22
2023-03-05T09:29:27.000Z,34.58
2023-03-05T09:31:53.649Z,34.51
2023-03-05T09:34:20.014Z,34.07
2023-03-05T09:36:46.262Z,34.04
2023-03-05T09:39:12.486Z,34.35
2023-03-05T09:42:00.179Z,34.13
2023-03-05T09:44:45.239Z,34.25
2023-03-05T09:47:34.491Z,34.16
2023-03-05T09:50:32.467Z,34.30
2023-03-05T09:53:16.738Z,34.40
2023-03-05T09:55:46.662Z,34.07
2023-03-05T09:58:17.883Z,34.28
2023-03-05T10:00:50.110Z,33.89
2023-03-05T10:03:26.252Z,34.14
2023-03-05T10:06:05.232Z,34.16
2023-03-05T10:08:43.402Z,34.26
2023-03-05T10:11:23.857Z,34.33
2023-03-05T10:13:51.629Z,34.56
2023-03-05T10:16:30.780Z,34.30
2023-03-05T10:19:23.044Z,34.97
2023-03-05T10:22:20.715Z,35.19
2023-03-05T10:24:55.696Z,35.32
2023-03-05T10:27:30.788Z,35.01
2023-03-05T10:30:27.466Z,35.00
2023-03-05T10:33:02.539Z,34.58
2023-03-05T10:35:36.340Z,34.00
2023-03-05T10:38:26.729Z,33.68
2023-03-05T10:40:55.140Z,33.46
2023-03-05T10:43:36.979Z,32.94
2023-03-05T10:46:29.117Z,32.73
2023-03-05T10:49:01.929Z,32.31
2023-03-05T10:51:43.545Z,32.22
2023-03-05T10:54:24.679Z,31.89
2023-03-05T10:57:02.232Z,32.02
2023-03-05T10:59:28.522Z,31.77
2023-03-05T11:02:04.557Z,31.69
2023-03-05T11:04:37.647Z,32.06
2023-03-05T11:07:15.837Z,31.97
2023-03-05T11:09:43.760Z,31.53
2023-03-05T11:12:20.816Z,31.35
2023-03-05T11:15:17.684Z,31.15
2023-03-05T11:17:48.375Z,31.45
2023-03-05T11:20:20.097Z,31.88
2023-03-05T11:23:01.164Z,32.07
2023-03-05T11:25:27.417Z,32.02
2023-03-05T11:27:58.990Z,32.33
2023-03-05T11:30:26.527Z,32.55
2023-03-05T11:33:14.735Z,32.16
2023-03-05T11:35:42.867Z,32.63
2023-03-05T11:38:27.245Z,32.54
2023-03-05T11:40:55.950Z,32.28
2023-03-05T11:43:24.970Z,32.39
2023-03-05T11:45:55.126Z,32.30
2023-03-05T11:48:27.964Z,32.46
2023-03-05T11:51:12.926Z,32.69
2023-03-05T11:53:39.135Z,32.73
2023-03-05T11:56:14.015Z,32.49
2023-03-05T11:58:49.404Z,33.16
2023-03-05T12:01:19.806Z,32.89
2023-03-05T12:03:46.918Z,32.75
2023-03-05T12:06:32.480Z,32.80
2023-03-05T12:09:03.050Z,33.02
2023-03-05T12:11:32.180Z,32.97
2023-03-05T12:14:05.933Z,33.03
2023-03-05T12:16:41.478Z,33.19
2023-03-05T12:19:27.795Z,33.50
2023-03-05T12:21:54.536Z,33.41
2023-03-05T12:24:25.397Z,33.74
2023-03-05T12:26:52.686Z,33.62
2023-03-05T12:29:29.152Z,33.48
2023-03-05T12:31:56.160Z,33.79
2023-03-05T12:34:44.940Z,34.25
2023-03-05T12:37:18.329Z,33.98
2023-03-05T12:39:45.151Z,34.03
2023-03-05T12:42:29.456Z,34.15
2023-03-05T12:45:18.644Z,33.90
2023-03-05T12:47:56.522Z,34.07
2023-03-05T12:50:28.554Z,34.03
2023-03-05T12:52:58.955Z,34.25
2023-03-05T12:55:45.234Z,34.30
2023-03-05T12:58:16.992Z,34.07
2023-03-05T13:00:48.841Z,33.90
2023-03-05T13:03:32.256Z,34.04
2023-03-05T13:06:07.548Z,34.08
2023-03-05T13:08:35.438Z,34.09
2023-03-05T13:11:06.216Z,34.10
2023-03-05T13:13:41.021Z,34.17
2023-03-05T13:16:18.591Z,34.22
2023-03-05T13:18:47.626Z,34.31
2023-03-05T13:21:18.873Z,34.36
2023-03-05T13:23:57.223Z,34.32
2023-03-05T13:26:43.247Z,34.45
2023-03-05T13:29:13.086Z,34.46
2023-03-05T13:31:51.481Z,34.51
2023-03-05T13:34:46.710Z,34.57
2023-03-05T13:37:19.964Z,34.39
2023-03-05T13:39:52.528Z,34.28
2023-03-05T13:42:33.879Z,34.20
2023-03-05T13:45:03.482Z,34.38
2023-03-05T13:47:35.535Z,34.33
2023-03-05T13:50:05.562Z,34.30
2023-03-05T13:55:19.460Z,34.64
2023-03-05T13:57:52.238Z,34.52
2023-03-05T14:00:33.685Z,34.52
2023-03-05T14:03:08.547Z,34.59
2023-03-05T14:05:34.936Z,34.60
2023-03-05T14:08:01.703Z,34.59
2023-03-05T14:10:50.044Z,34.70
2023-03-05T14:13:28.811Z,34.75
2023-03-05T14:16:11.381Z,34.69
2023-03-05T14:18:39.298Z,35.06
2023-03-05T14:21:10.753Z,34.34
2023-03-05T14:23:44.510Z,34.69
2023-03-05T14:26:35.749Z,34.83
2023-03-05T14:29:10.780Z,34.83
2023-03-05T14:32:02.330Z,34.85
2023-03-05T14:34:52.065Z,34.88
2023-03-05T14:37:23.077Z,34.99
2023-03-05T14:39:52.405Z,34.99
2023-03-05T14:42:29.341Z,34.78
2023-03-05T14:44:57.935Z,34.96
2023-03-05T14:47:25.144Z,34.83
2023-03-05T14:49:51.770Z,34.85
2023-03-05T14:52:20.270Z,35.26
2023-03-05T14:54:46.883Z,35.40
2023-03-05T14:57:18.014Z,36.21
2023-03-05T14:59:44.178Z,36.59
2023-03-05T15:02:18.256Z,36.33
2023-03-05T15:04:47.796Z,36.41
2023-03-05T15:07:21.454Z,35.91
2023-03-05T15:09:47.934Z,35.68
2023-03-05T15:12:15.883Z,35.34
2023-03-05T15:14:42.920Z,35.29
2023-03-05T15:17:25.400Z,35.47
2023-03-05T15:19:53.100Z,35.16
2023-03-05T15:22:19.293Z,35.12
2023-03-05T15:24:45.367Z,35.70
2023-03-05T15:27:12.053Z,35.34
2023-03-05T15:29:38.178Z,35.29
2023-03-05T15:32:04.988Z,35.45
2023-03-05T15:34:33.229Z,35.04
2023-03-05T15:37:00.333Z,35.26
2023-03-05T15:39:27.908Z,35.06
2023-03-05T15:41:55.098Z,34.82
2023-03-05T15:44:21.569Z,34.59
2023-03-05T15:46:47.838Z,34.30
2023-03-05T15:49:14.986Z,34.28
2023-03-05T15:51:41.601Z,34.63
2023-03-05T15:54:07.855Z,34.57
2023-03-05T15:56:36.604Z,34.34
2023-03-05T15:59:03.147Z,34.57
2023-03-05T16:01:29.345Z,34.49
2023-03-05T16:03:55.531Z,34.86
2023-03-05T16:06:24.158Z,35.20
2023-03-05T16:08:55.050Z,35.22
2023-03-05T16:11:21.633Z,35.60
2023-03-05T16:13:49.869Z,36.02
2023-03-05T16:16:16.433Z,35.85
2023-03-05T16:18:45.465Z,36.01
2023-03-05T16:21:13.204Z,36.15
2023-03-05T16:23:39.553Z,36.04
2023-03-05T16:26:07.928Z,36.22
2023-03-05T16:28:34.109Z,36.41
2023-03-05T16:31:00.375Z,36.51
2023-03-05T16:33:26.703Z,36.49
2023-03-05T16:36:17.872Z,36.49
2023-03-05T16:38:44.223Z,36.66
2023-03-05T16:41:13.986Z,36.99
2023-03-05T16:43:40.216Z,37.06
2023-03-05T16:46:10.125Z,37.18
2023-03-05T16:48:36.667Z,37.51
2023-03-05T16:51:04.513Z,37.74
2023-03-05T16:53:33.430Z,37.89
2023-03-05T16:56:05.896Z,38.25
2023-03-05T16:58:33.687Z,38.28
2023-03-05T17:01:00.547Z,38.47
2023-03-05T17:03:27.797Z,38.68
2023-03-05T17:05:57.291Z,38.91
2023-03-05T17:08:23.851Z,38.98
2023-03-05T17:10:50.320Z,39.24
2023-03-05T17:13:17.436Z,39.40
2023-03-05T17:18:14.532Z,39.50
2023-03-05T17:20:40.972Z,39.55
2023-03-05T17:23:07.368Z,39.55
2023-03-05T17:25:33.597Z,39.56
2023-03-05T17:27:59.804Z,39.64
2023-03-05T17:30:25.898Z,39.78
2023-03-05T17:32:53.328Z,39.80
2023-03-05T17:35:21.514Z,39.68
2023-03-05T17:37:48.884Z,39.89
2023-03-05T17:40:15.564Z,39.95
2023-03-05T17:42:41.798Z,40.20
2023-03-05T17:45:08.269Z,40.07
2023-03-05T17:47:34.533Z,40.12
2023-03-05T17:50:01.367Z,40.05
2023-03-05T17:52:27.542Z,40.02
2023-03-05T17:54:53.871Z,40.13
2023-03-05T17:57:20.867Z,39.99
2023-03-05T17:59:47.685Z,40.03
2023-03-05T18:02:16.122Z,40.18
2023-03-05T18:04:43.354Z,40.05
2023-03-05T18:07:10.296Z,40.15
2023-03-05T18:09:36.821Z,40.17
2023-03-05T18:12:03.059Z,40.16
2023-03-05T18:14:29.378Z,40.42
2023-03-05T18:16:57.511Z,40.36
2023-03-05T18:19:24.555Z,40.49
2023-03-05T18:21:51.405Z,40.39
2023-03-05T18:24:17.542Z,40.51
2023-03-05T18:26:43.689Z,40.47
2023-03-05T18:29:09.787Z,40.54
2023-03-05T18:31:35.918Z,40.51
2023-03-05T18:34:02.188Z,40.48
2023-03-05T18:36:28.290Z,40.65
2023-03-05T18:38:56.114Z,40.61
2023-03-05T18:41:27.490Z,40.74
2023-03-05T18:43:54.102Z,40.68
2023-03-05T18:46:20.468Z,40.71
2023-03-05T18:48:49.896Z,40.76
2023-03-05T18:51:18.653Z,40.79
2023-03-05T18:53:48.557Z,41.07
2023-03-05T18:56:14.715Z,41.15
2023-03-05T18:58:41.615Z,41.13
2023-03-05T19:01:08.623Z,41.19
2023-03-05T19:03:34.957Z,41.24
2023-03-05T19:06:01.031Z,41.33
2023-03-05T19:08:27.416Z,41.24
2023-03-05T19:10:53.628Z,41.45
2023-03-05T19:13:48.238Z,41.43
2023-03-05T19:16:17.526Z,41.40
2023-03-05T19:19:25.794Z,41.35
2023-03-05T19:21:58.956Z,41.52
2023-03-05T19:24:27.980Z,41.63
2023-03-05T19:26:57.489Z,41.68
2023-03-05T19:29:24.886Z,41.65
2023-03-05T19:31:52.302Z,41.64
2023-03-05T19:34:20.015Z,41.74
2023-03-05T19:36:47.062Z,41.81
2023-03-05T19:39:13.509Z,41.85
2023-03-05T19:41:39.736Z,41.79
2023-03-05T19:44:06.264Z,41.63
2023-03-05T19:46:32.565Z,41.75
2023-03-05T19:48:59.068Z,41.82
2023-03-05T19:51:25.848Z,41.77
2023-03-05T19:53:52.483Z,41.91
2023-03-05T19:56:19.093Z,41.78
2023-03-05T19:58:46.960Z,41.87
2023-03-05T20:01:16.076Z,41.92
2023-03-05T20:03:52.143Z,41.78
2023-03-05T20:06:18.867Z,41.69
2023-03-05T20:08:45.556Z,41.53
2023-03-05T20:11:13.824Z,41.42
2023-03-05T20:13:40.285Z,41.29
2023-03-05T20:16:20.908Z,41.58
2023-03-05T20:18:51.976Z,41.42
2023-03-05T20:21:25.870Z,41.35
2023-03-05T20:23:55.875Z,41.32
2023-03-05T20:26:25.350Z,41.40
2023-03-05T20:28:53.007Z,41.40
2023-03-05T20:31:21.242Z,41.35
2023-03-05T20:33:50.780Z,41.44
2023-03-05T20:36:17.513Z,41.53
2023-03-05T20:38:45.084Z,41.66
2023-03-05T20:41:14.662Z,41.85
2023-03-05T20:43:45.860Z,41.78
2023-03-05T20:46:31.324Z,41.85
2023-03-05T20:49:00.217Z,42.07
2023-03-05T20:51:31.108Z,42.13
2023-03-05T20:54:03.425Z,42.06
2023-03-05T20:56:32.081Z,42.34
2023-03-05T20:59:03.956Z,42.41
2023-03-05T21:01:32.178Z,42.37
2023-03-05T21:03:59.175Z,42.67
2023-03-05T21:06:27.372Z,42.67
2023-03-05T21:08:53.558Z,42.61
2023-03-05T21:11:19.770Z,42.78
2023-03-05T21:13:46.116Z,42.86
2023-03-05T21:16:18.250Z,42.84
2023-03-05T21:18:47.443Z,42.97
2023-03-05T21:21:13.770Z,43.00
2023-03-05T21:23:39.853Z,43.02
2023-03-05T21:26:06.563Z,43.03
2023-03-05T21:28:32.893Z,43.20
2023-03-05T21:31:06.441Z,43.12
2023-03-05T21:33:32.803Z,43.05
2023-03-05T21:35:58.960Z,43.07
2023-03-05T21:38:29.118Z,42.99
2023-03-05T21:40:57.498Z,43.12
2023-03-05T21:43:24.812Z,43.08
2023-03-05T21:45:52.993Z,43.14
2023-03-05T21:48:20.002Z,43.21
2023-03-05T21:50:46.923Z,43.23
2023-03-05T21:53:14.570Z,43.27
2023-03-05T21:56:21.426Z,43.39
2023-03-05T21:58:48.101Z,43.44
2023-03-05T22:01:17.734Z,43.52
2023-03-05T22:03:44.001Z,43.71
2023-03-05T22:06:13.808Z,43.69
2023-03-05T22:08:40.852Z,43.83
2023-03-05T22:11:09.009Z,43.92
2023-03-05T22:13:39.278Z,44.02
2023-03-05T22:16:08.515Z,43.72
2023-03-05T22:18:35.761Z,43.87
2023-03-05T22:21:02.864Z,43.95
2023-03-05T22:23:33.362Z,43.95
2023-03-05T22:26:05.041Z,43.95
2023-03-05T22:28:33.338Z,44.02
2023-03-05T22:30:59.979Z,43.98
2023-03-05T22:33:26.913Z,43.78
2023-03-05T22:35:53.119Z,43.95
2023-03-05T22:38:19.796Z,43.80
2023-03-05T22:40:47.593Z,43.80
2023-03-05T22:43:14.950Z,44.01
2023-03-05T22:45:41.680Z,44.13
2023-03-05T22:48:10.892Z,44.08
2023-03-05T22:50:38.533Z,44.03
2023-03-05T22:53:04.653Z,44.20
2023-03-05T22:55:30.687Z,44.26
2023-03-05T22:57:56.802Z,44.26
2023-03-05T23:00:23.178Z,44.21
2023-03-05T23:02:50.910Z,44.38
2023-03-05T23:05:18.110Z,44.40
2023-03-05T23:07:45.307Z,44.44
2023-03-05T23:10:14.154Z,44.41
2023-03-05T23:12:45.409Z,44.48
2023-03-05T23:15:14.562Z,44.51
2023-03-05T23:17:40.899Z,44.57
2023-03-05T23:20:10.263Z,44.55
2023-03-05T23:22:38.466Z,44.45
2023-03-05T23:25:05.327Z,44.48
2023-03-05T23:27:31.466Z,44.58
2023-03-05T23:30:17.067Z,44.52
2023-03-05T23:32:48.624Z,44.53
2023-03-05T23:35:18.757Z,44.52
2023-03-05T23:37:45.113Z,44.67
2023-03-05T23:40:23.532Z,44.60
2023-03-05T23:42:49.664Z,44.59
2023-03-05T23:45:17.694Z,44.70
2023-03-05T23:47:44.341Z,44.49
2023-03-05T23:50:16.594Z,44.73
2023-03-05T23:52:43.960Z,44.89
2023-03-05T23:55:15.881Z,44.87
2023-03-05T23:57:42.613Z,44.88
